Time;durP1;ratioP1;P1;durP2;ratioP2;P2;SDS_P1;SDS_P2;PMS_P1;PMS_P2;Temp;Humidity;BMP_temperature;BMP_pressure;BME280_temperature;BME280_humidity;BME280_pressure;Samples;Min_cycle;Max_cycle;Signal;HPM_P1;HPM_P2
2023/03/21 00:00:57;;;;;;;;;21.25;21.00;;;;;;;;5068996;28;9864;-83
2023/03/21 00:03:27;;;;;;;;;22.75;20.25;;;;;;;;5069629;28;10122;-83
2023/03/21 00:05:57;;;;;;;;;25.75;22.25;;;;;;;;5069323;28;9955;-83
2023/03/21 00:08:26;;;;;;;;;24.75;23.00;;;;;;;;5064358;28;9997;-83
2023/03/21 00:10:57;;;;;;;;;23.25;22.00;;;;;;;;5066741;28;10218;-83
2023/03/21 00:13:27;;;;;;;;;26.50;23.75;;;;;;;;5076895;28;9978;-83
2023/03/21 00:15:55;;;;;;;;;22.25;20.25;;;;;;;;5069561;28;10189;-83
2023/03/21 00:18:24;;;;;;;;;23.25;22.75;;;;;;;;5060271;28;10028;-82
2023/03/21 00:20:58;;;;;;;;;21.00;19.25;;;;;;;;5076420;28;10041;-83
2023/03/21 00:23:26;;;;;;;;;25.75;20.25;;;;;;;;5057216;28;9849;-82
2023/03/21 00:25:54;;;;;;;;;15.50;14.25;;;;;;;;5070761;28;10000;-82
2023/03/21 00:28:22;;;;;;;;;19.25;16.50;;;;;;;;5072962;28;10029;-83
2023/03/21 00:30:51;;;;;;;;;18.50;16.75;;;;;;;;5073309;28;9868;-83
2023/03/21 00:33:20;;;;;;;;;21.50;19.50;;;;;;;;5063183;28;9864;-82
2023/03/21 00:35:51;;;;;;;;;17.00;17.00;;;;;;;;5069068;28;10077;-83
2023/03/21 00:38:19;;;;;;;;;17.50;17.50;;;;;;;;5068542;28;9962;-83
2023/03/21 00:40:46;;;;;;;;;20.25;16.50;;;;;;;;5068683;28;10587;-83
2023/03/21 00:43:16;;;;;;;;;19.00;19.00;;;;;;;;5068267;28;10098;-83
2023/03/21 00:45:43;;;;;;;;;23.25;18.00;;;;;;;;5058428;28;10119;-84
2023/03/21 00:48:12;;;;;;;;;15.75;15.75;;;;;;;;5067885;28;10013;-82
2023/03/21 00:50:39;;;;;;;;;20.00;16.25;;;;;;;;5068964;28;9769;-82
2023/03/21 00:53:07;;;;;;;;;12.50;12.50;;;;;;;;5066872;28;10121;-83
2023/03/21 00:55:35;;;;;;;;;18.75;15.75;;;;;;;;5069207;28;9934;-82
2023/03/21 00:58:02;;;;;;;;;11.00;8.00;;;;;;;;5068932;28;9764;-82
2023/03/21 01:00:31;;;;;;;;;17.75;15.50;;;;;;;;5065925;28;9778;-82
2023/03/21 01:03:04;;;;;;;;;14.00;14.00;;;;;;;;5064536;28;9929;-83
2023/03/21 01:08:25;;;;;;;;;14.25;12.50;;;;;;;;5037326;28;10046;-82
2023/03/21 01:10:52;;;;;;;;;18.25;14.25;;;;;;;;5065637;28;9945;-82
2023/03/21 01:13:22;;;;;;;;;14.75;11.75;;;;;;;;5069468;28;10062;-82
2023/03/21 01:15:51;;;;;;;;;21.25;17.25;;;;;;;;5069262;28;9970;-82
2023/03/21 01:18:21;;;;;;;;;17.25;15.75;;;;;;;;5077355;28;10983;-82
2023/03/21 01:20:50;;;;;;;;;16.00;15.00;;;;;;;;5068109;28;9863;-82
2023/03/21 01:23:17;;;;;;;;;15.25;14.00;;;;;;;;5068602;28;10278;-81
2023/03/21 01:25:45;;;;;;;;;22.50;21.25;;;;;;;;5069308;28;10128;-82
2023/03/21 01:28:12;;;;;;;;;12.75;12.75;;;;;;;;5068008;28;10150;-81
2023/03/21 01:30:39;;;;;;;;;19.00;16.50;;;;;;;;5067624;28;10099;-82
2023/03/21 01:33:06;;;;;;;;;17.25;15.25;;;;;;;;5050393;28;10050;-82
2023/03/21 01:35:36;;;;;;;;;18.75;16.00;;;;;;;;5067991;28;10700;-83
2023/03/21 01:38:05;;;;;;;;;14.75;13.00;;;;;;;;5067301;28;9859;-83
2023/03/21 01:40:32;;;;;;;;;17.00;16.00;;;;;;;;5065612;28;10058;-83
2023/03/21 01:42:59;;;;;;;;;15.75;14.75;;;;;;;;5066844;28;10034;-83
2023/03/21 01:46:07;;;;;;;;;13.25;13.25;;;;;;;;5066277;28;10041;-82
2023/03/21 01:48:36;;;;;;;;;17.67;17.67;;;;;;;;5040422;28;10248;-83
2023/03/21 01:51:03;;;;;;;;;17.25;16.75;;;;;;;;5067164;28;10161;-83
2023/03/21 01:53:34;;;;;;;;;18.25;16.75;;;;;;;;5068567;28;10177;-82
2023/03/21 01:56:05;;;;;;;;;20.25;15.75;;;;;;;;5072666;28;10215;-83
2023/03/21 01:58:34;;;;;;;;;15.00;14.00;;;;;;;;5072363;28;10268;-84
2023/03/21 02:01:03;;;;;;;;;16.00;15.00;;;;;;;;5064557;28;10183;-84
2023/03/21 02:03:36;;;;;;;;;15.75;15.25;;;;;;;;5071669;28;10297;-83
2023/03/21 02:06:08;;;;;;;;;15.00;15.00;;;;;;;;5071872;28;10257;-83
2023/03/21 02:08:37;;;;;;;;;16.50;16.00;;;;;;;;5054512;28;10212;-83
2023/03/21 02:11:05;;;;;;;;;17.75;16.50;;;;;;;;5069307;28;10239;-84
2023/03/21 02:13:32;;;;;;;;;16.50;15.00;;;;;;;;5072543;28;10463;-83
2023/03/21 02:16:02;;;;;;;;;17.00;16.75;;;;;;;;5070255;28;10300;-83
2023/03/21 02:18:38;;;;;;;;;15.50;12.50;;;;;;;;5074165;28;10322;-84
2023/03/21 02:21:25;;;;;;;;;15.75;14.50;;;;;;;;5074219;28;10330;-84
2023/03/21 02:24:12;;;;;;;;;12.25;12.25;;;;;;;;5078995;28;10471;-84
2023/03/21 02:26:52;;;;;;;;;13.50;12.25;;;;;;;;5052517;28;10437;-83
2023/03/21 02:29:39;;;;;;;;;16.00;14.50;;;;;;;;5043157;28;10233;-85
2023/03/21 02:32:12;;;;;;;;;15.75;15.75;;;;;;;;5052879;28;10260;-84
2023/03/21 02:34:52;;;;;;;;;14.00;14.00;;;;;;;;5045244;28;10283;-85
2023/03/21 02:37:25;;;;;;;;;16.50;16.25;;;;;;;;5072210;28;10282;-84
2023/03/21 02:39:57;;;;;;;;;15.25;15.25;;;;;;;;5071838;28;10249;-84
2023/03/21 02:42:30;;;;;;;;;15.75;15.75;;;;;;;;5071595;28;10243;-84
2023/03/21 02:45:02;;;;;;;;;17.25;14.00;;;;;;;;5071621;28;10251;-83
2023/03/21 02:47:34;;;;;;;;;14.00;14.00;;;;;;;;5072567;28;10363;-83
2023/03/21 02:50:08;;;;;;;;;16.50;14.50;;;;;;;;5070980;28;10426;-84
2023/03/21 02:52:37;;;;;;;;;15.00;15.00;;;;;;;;5071956;28;10197;-83
2023/03/21 02:55:06;;;;;;;;;8.00;8.00;;;;;;;;5071516;28;10245;-85
2023/03/21 02:57:34;;;;;;;;;16.50;10.00;;;;;;;;5071326;28;10279;-84
2023/03/21 03:00:06;;;;;;;;;16.00;14.00;;;;;;;;5070674;28;10452;-84
2023/03/21 03:02:34;;;;;;;;;16.00;16.00;;;;;;;;5071705;28;10936;-84
2023/03/21 03:05:01;;;;;;;;;15.00;11.75;;;;;;;;5071469;28;10336;-85
2023/03/21 03:07:40;;;;;;;;;14.25;14.25;;;;;;;;5071064;28;10346;-85
2023/03/21 03:10:29;;;;;;;;;14.00;14.00;;;;;;;;5055947;28;10167;-86
2023/03/21 03:13:08;;;;;;;;;12.75;12.75;;;;;;;;5068358;28;10207;-85
2023/03/21 03:15:40;;;;;;;;;15.75;12.25;;;;;;;;5071751;28;10263;-86
2023/03/21 03:18:13;;;;;;;;;13.50;13.50;;;;;;;;5071243;28;10307;-86
2023/03/21 03:20:48;;;;;;;;;14.00;9.50;;;;;;;;5071517;28;10393;-85
2023/03/21 03:23:25;;;;;;;;;10.25;8.50;;;;;;;;5072878;28;10534;-83
2023/03/21 03:25:56;;;;;;;;;14.75;14.75;;;;;;;;5051271;28;10341;-86
2023/03/21 03:28:26;;;;;;;;;12.25;12.25;;;;;;;;5068552;28;10407;-86
2023/03/21 03:30:55;;;;;;;;;16.25;14.25;;;;;;;;5051203;28;11272;-85
2023/03/21 03:33:23;;;;;;;;;13.50;13.50;;;;;;;;5070400;28;10493;-85
2023/03/21 03:35:51;;;;;;;;;12.25;11.75;;;;;;;;5070133;28;10524;-85
2023/03/21 03:38:22;;;;;;;;;19.00;14.00;;;;;;;;5065596;28;10425;-86
2023/03/21 03:40:51;;;;;;;;;18.50;12.75;;;;;;;;5069006;28;10412;-84
2023/03/21 03:43:21;;;;;;;;;12.00;12.00;;;;;;;;5068772;28;10370;-84
2023/03/21 03:45:52;;;;;;;;;13.00;13.00;;;;;;;;5069284;28;10376;-83
2023/03/21 03:48:25;;;;;;;;;12.00;12.00;;;;;;;;5079043;28;10547;-83
2023/03/21 03:50:55;;;;;;;;;13.00;12.25;;;;;;;;5071721;28;10297;-83
2023/03/21 03:53:27;;;;;;;;;13.75;13.25;;;;;;;;5067150;28;10632;-84
2023/03/21 03:55:55;;;;;;;;;12.50;10.75;;;;;;;;5065855;28;10351;-84
2023/03/21 03:58:24;;;;;;;;;11.75;11.75;;;;;;;;5067029;28;10325;-84
2023/03/21 04:00:52;;;;;;;;;13.00;11.75;;;;;;;;5069139;28;10319;-84
2023/03/21 04:03:19;;;;;;;;;13.00;12.25;;;;;;;;5067896;28;10466;-85
2023/03/21 04:05:47;;;;;;;;;13.50;10.50;;;;;;;;5070713;28;10539;-85
2023/03/21 04:08:15;;;;;;;;;10.75;10.75;;;;;;;;5066980;28;10368;-86
2023/03/21 04:10:45;;;;;;;;;12.00;12.00;;;;;;;;5065293;28;10406;-86
2023/03/21 04:13:12;;;;;;;;;10.00;10.00;;;;;;;;5072673;28;10473;-83
2023/03/21 04:15:39;;;;;;;;;12.50;10.75;;;;;;;;5074810;28;10338;-83
2023/03/21 04:18:07;;;;;;;;;11.50;11.50;;;;;;;;5071932;28;10447;-84
2023/03/21 04:20:34;;;;;;;;;11.50;11.50;;;;;;;;5064220;28;10421;-82
2023/03/21 04:23:02;;;;;;;;;13.75;10.75;;;;;;;;5070546;28;10429;-83
2023/03/21 04:25:29;;;;;;;;;10.50;10.50;;;;;;;;5069622;28;10375;-84
2023/03/21 04:27:58;;;;;;;;;12.25;10.75;;;;;;;;5069242;28;11208;-84
2023/03/21 04:30:25;;;;;;;;;12.00;12.00;;;;;;;;5056102;28;10462;-84
2023/03/21 04:32:55;;;;;;;;;11.00;11.00;;;;;;;;5057944;28;10524;-84
2023/03/21 04:35:23;;;;;;;;;9.75;9.75;;;;;;;;5051283;28;10405;-84
2023/03/21 04:37:51;;;;;;;;;10.75;10.75;;;;;;;;5064380;28;10526;-82
2023/03/21 04:40:18;;;;;;;;;10.25;9.00;;;;;;;;5066941;28;10322;-83
2023/03/21 04:42:46;;;;;;;;;13.00;13.00;;;;;;;;5058866;28;10534;-82
2023/03/21 04:45:16;;;;;;;;;11.00;11.00;;;;;;;;5068829;28;10625;-82
2023/03/21 04:47:44;;;;;;;;;10.75;10.75;;;;;;;;5067494;28;10399;-84
2023/03/21 04:50:14;;;;;;;;;8.75;8.75;;;;;;;;5068635;28;10471;-82
2023/03/21 04:52:41;;;;;;;;;10.75;9.50;;;;;;;;5056645;28;10419;-84
2023/03/21 04:55:10;;;;;;;;;11.00;9.25;;;;;;;;5067387;28;10674;-84
2023/03/21 04:57:37;;;;;;;;;10.25;10.25;;;;;;;;5069295;28;10473;-85
2023/03/21 05:00:09;;;;;;;;;12.75;10.50;;;;;;;;5068832;28;10505;-84
2023/03/21 05:02:38;;;;;;;;;10.00;10.00;;;;;;;;5068983;28;10468;-84
2023/03/21 05:05:09;;;;;;;;;12.50;11.25;;;;;;;;5056268;28;10542;-88
2023/03/21 05:07:37;;;;;;;;;15.75;15.75;;;;;;;;5067736;28;10594;-82
2023/03/21 05:10:06;;;;;;;;;9.00;7.50;;;;;;;;5068084;28;11291;-82
2023/03/21 05:12:33;;;;;;;;;9.00;7.00;;;;;;;;5067911;28;10411;-83
2023/03/21 05:15:00;;;;;;;;;10.25;10.25;;;;;;;;5067363;28;11221;-83
2023/03/21 05:17:28;;;;;;;;;7.00;7.00;;;;;;;;5063436;28;10567;-83
2023/03/21 05:19:57;;;;;;;;;9.25;9.25;;;;;;;;5069491;28;10364;-81
2023/03/21 05:22:25;;;;;;;;;15.75;10.25;;;;;;;;5065076;28;11049;-84
2023/03/21 05:24:54;;;;;;;;;9.25;9.25;;;;;;;;5066615;28;10572;-84
2023/03/21 05:27:34;;;;;;;;;10.00;7.50;;;;;;;;5068902;28;10391;-84
2023/03/21 05:30:03;;;;;;;;;8.25;8.25;;;;;;;;5043473;28;10376;-84
2023/03/21 05:32:30;;;;;;;;;8.25;8.25;;;;;;;;5072294;28;10275;-84
2023/03/21 05:34:59;;;;;;;;;6.50;6.50;;;;;;;;5069559;28;10462;-85
2023/03/21 05:37:26;;;;;;;;;10.00;9.00;;;;;;;;5076703;28;10315;-83
2023/03/21 05:39:54;;;;;;;;;10.00;7.50;;;;;;;;5071746;28;10553;-84
2023/03/21 05:42:21;;;;;;;;;10.75;6.50;;;;;;;;5061200;28;10419;-84
2023/03/21 05:44:48;;;;;;;;;12.75;9.00;;;;;;;;5071655;28;10224;-85
2023/03/21 05:47:17;;;;;;;;;7.00;7.00;;;;;;;;5070245;28;10515;-84
2023/03/21 05:49:44;;;;;;;;;7.00;7.00;;;;;;;;5072311;28;10257;-87
2023/03/21 05:52:13;;;;;;;;;6.00;6.00;;;;;;;;5053828;28;10373;-83
2023/03/21 05:54:40;;;;;;;;;10.25;6.75;;;;;;;;5071370;28;10451;-84
2023/03/21 05:57:08;;;;;;;;;6.00;6.00;;;;;;;;5078335;28;10426;-83
2023/03/21 05:59:35;;;;;;;;;7.25;7.25;;;;;;;;5065086;28;10430;-83
2023/03/21 06:02:05;;;;;;;;;9.00;6.50;;;;;;;;5080971;28;10400;-82
2023/03/21 06:04:33;;;;;;;;;9.00;9.00;;;;;;;;5072200;28;10380;-81
2023/03/21 06:07:01;;;;;;;;;5.50;5.50;;;;;;;;5075433;28;10384;-82
2023/03/21 06:09:30;;;;;;;;;9.00;6.25;;;;;;;;5075182;28;10443;-83
2023/03/21 06:11:58;;;;;;;;;9.75;6.00;;;;;;;;5073769;28;10484;-84
2023/03/21 06:14:28;;;;;;;;;6.00;6.00;;;;;;;;5089295;28;10555;-83
2023/03/21 06:16:58;;;;;;;;;5.75;5.75;;;;;;;;5060520;28;11140;-83
2023/03/21 06:19:31;;;;;;;;;6.00;6.00;;;;;;;;5072297;28;10304;-82
2023/03/21 06:21:58;;;;;;;;;5.00;5.00;;;;;;;;5061372;28;10254;-85
2023/03/21 06:24:26;;;;;;;;;6.00;6.00;;;;;;;;5047417;28;10322;-85
2023/03/21 06:26:56;;;;;;;;;6.00;6.00;;;;;;;;5072977;28;10382;-86
2023/03/21 06:29:23;;;;;;;;;4.25;4.00;;;;;;;;5071193;28;10299;-83
2023/03/21 06:31:52;;;;;;;;;9.25;7.00;;;;;;;;5069206;28;10384;-85
2023/03/21 06:34:25;;;;;;;;;7.75;7.75;;;;;;;;5070188;28;10500;-86
2023/03/21 06:36:56;;;;;;;;;7.00;7.00;;;;;;;;5060226;28;11132;-85
2023/03/21 06:39:24;;;;;;;;;10.75;8.75;;;;;;;;5068903;28;10467;-84
2023/03/21 06:41:54;;;;;;;;;7.00;5.25;;;;;;;;5076641;28;10357;-85
2023/03/21 06:44:23;;;;;;;;;9.25;6.75;;;;;;;;5081676;28;10395;-89
2023/03/21 06:46:50;;;;;;;;;10.50;10.50;;;;;;;;5082815;28;10472;-83
2023/03/21 06:49:18;;;;;;;;;10.00;6.75;;;;;;;;5063207;28;10587;-88
2023/03/21 06:51:46;;;;;;;;;6.00;6.00;;;;;;;;5083110;28;10480;-89
2023/03/21 06:54:19;;;;;;;;;6.75;6.75;;;;;;;;5061714;28;10460;-87
2023/03/21 06:56:47;;;;;;;;;6.00;6.00;;;;;;;;5071623;28;11162;-81
2023/03/21 06:59:15;;;;;;;;;9.00;6.75;;;;;;;;5062872;28;10556;-86
2023/03/21 07:01:43;;;;;;;;;8.00;8.00;;;;;;;;5070542;28;10401;-84
2023/03/21 07:04:10;;;;;;;;;10.25;8.50;;;;;;;;5062296;28;10603;-83
2023/03/21 07:06:37;;;;;;;;;6.75;6.75;;;;;;;;5070159;28;10552;-82
2023/03/21 07:09:05;;;;;;;;;5.50;5.50;;;;;;;;5071013;28;10592;-78
2023/03/21 07:11:33;;;;;;;;;8.75;7.75;;;;;;;;5060784;28;10553;-80
2023/03/21 07:14:00;;;;;;;;;9.00;6.75;;;;;;;;5069558;28;10555;-81
2023/03/21 07:16:29;;;;;;;;;6.25;6.25;;;;;;;;5070385;28;11185;-78
2023/03/21 07:18:56;;;;;;;;;12.00;8.00;;;;;;;;5070982;28;10393;-87
2023/03/21 07:21:23;;;;;;;;;9.25;7.00;;;;;;;;5069732;28;10536;-80
2023/03/21 07:23:51;;;;;;;;;9.75;7.00;;;;;;;;5069818;28;10545;-81
2023/03/21 07:26:18;;;;;;;;;6.25;6.25;;;;;;;;5069824;28;10524;-82
2023/03/21 07:28:45;;;;;;;;;9.00;9.00;;;;;;;;5069391;28;10415;-82
2023/03/21 07:31:15;;;;;;;;;6.75;6.75;;;;;;;;5065249;28;10491;-82
2023/03/21 07:33:44;;;;;;;;;4.25;4.25;;;;;;;;5061879;28;10394;-87
2023/03/21 07:36:14;;;;;;;;;6.75;6.75;;;;;;;;5066472;28;10392;-88
2023/03/21 07:38:41;;;;;;;;;5.75;5.75;;;;;;;;5072885;28;10392;-93
2023/03/21 07:41:09;;;;;;;;;12.00;11.50;;;;;;;;5060046;28;10483;-92
2023/03/21 07:43:36;;;;;;;;;10.25;10.25;;;;;;;;5070245;28;10459;-80
2023/03/21 07:46:06;;;;;;;;;7.00;7.00;;;;;;;;5075022;28;10389;-91
2023/03/21 07:48:33;;;;;;;;;6.00;6.00;;;;;;;;5062085;28;10534;-85
2023/03/21 07:51:02;;;;;;;;;10.00;9.75;;;;;;;;5070397;28;11174;-82
2023/03/21 07:53:29;;;;;;;;;7.25;7.25;;;;;;;;5071514;28;10333;-84
2023/03/21 07:55:56;;;;;;;;;11.50;7.25;;;;;;;;5073167;28;10253;-90
2023/03/21 07:58:24;;;;;;;;;11.25;9.75;;;;;;;;5074539;28;10338;-87
2023/03/21 08:00:52;;;;;;;;;10.50;10.50;;;;;;;;5074368;28;10353;-88
2023/03/21 08:03:20;;;;;;;;;9.00;9.00;;;;;;;;5065256;28;10704;-82
2023/03/21 08:05:47;;;;;;;;;11.50;10.00;;;;;;;;5057356;28;10605;-79
2023/03/21 08:08:16;;;;;;;;;11.00;9.25;;;;;;;;5069995;28;10466;-81
2023/03/21 08:10:43;;;;;;;;;12.50;9.00;;;;;;;;5065299;28;11171;-84
2023/03/21 08:13:10;;;;;;;;;10.50;10.00;;;;;;;;5075663;28;10636;-80
2023/03/21 08:15:40;;;;;;;;;13.00;11.00;;;;;;;;5057286;28;10569;-84
2023/03/21 08:18:08;;;;;;;;;11.50;11.00;;;;;;;;5069218;28;10397;-77
2023/03/21 08:20:35;;;;;;;;;11.75;9.75;;;;;;;;5071988;28;10573;-78
2023/03/21 08:23:03;;;;;;;;;8.25;8.25;;;;;;;;5069290;28;10429;-79
2023/03/21 08:25:32;;;;;;;;;10.00;10.00;;;;;;;;5068717;28;10402;-79
2023/03/21 08:27:59;;;;;;;;;10.50;8.25;;;;;;;;5061948;28;10525;-73
2023/03/21 08:30:28;;;;;;;;;10.25;10.25;;;;;;;;5067137;28;10572;-78
2023/03/21 08:32:57;;;;;;;;;8.50;8.50;;;;;;;;5068572;28;10155;-81
2023/03/21 08:35:25;;;;;;;;;11.00;6.75;;;;;;;;5067904;28;10250;-79
2023/03/21 08:37:52;;;;;;;;;8.25;8.25;;;;;;;;5069626;28;10177;-82
2023/03/21 08:40:19;;;;;;;;;8.00;8.00;;;;;;;;5068005;28;10197;-76
2023/03/21 08:42:48;;;;;;;;;7.50;7.50;;;;;;;;5060763;28;10251;-77
2023/03/21 08:45:17;;;;;;;;;12.00;12.00;;;;;;;;5069028;28;10168;-83
2023/03/21 08:47:44;;;;;;;;;10.00;10.00;;;;;;;;5070043;28;10299;-84
2023/03/21 08:50:14;;;;;;;;;9.25;8.50;;;;;;;;5069941;28;10255;-82
2023/03/21 08:52:41;;;;;;;;;10.50;8.50;;;;;;;;5069067;28;10106;-84
2023/03/21 08:55:10;;;;;;;;;9.00;9.00;;;;;;;;5067835;28;10207;-88
2023/03/21 08:57:37;;;;;;;;;11.00;11.00;;;;;;;;5068483;28;10175;-76
2023/03/21 09:00:11;;;;;;;;;17.00;11.25;;;;;;;;5068683;28;10175;-83
2023/03/21 09:02:39;;;;;;;;;8.25;8.25;;;;;;;;5068948;28;10963;-89
2023/03/21 09:05:06;;;;;;;;;11.75;11.75;;;;;;;;5056386;28;10317;-90
2023/03/21 09:07:35;;;;;;;;;10.50;9.25;;;;;;;;5067053;28;10235;-88
2023/03/21 09:10:02;;;;;;;;;15.50;12.50;;;;;;;;5067349;28;10222;-87
2023/03/21 09:12:29;;;;;;;;;9.00;9.00;;;;;;;;5068899;28;9925;-85
2023/03/21 09:14:56;;;;;;;;;12.50;9.25;;;;;;;;5074208;28;9893;-85
2023/03/21 09:17:25;;;;;;;;;11.00;7.50;;;;;;;;5078966;28;9898;-86
2023/03/21 09:19:52;;;;;;;;;12.00;12.00;;;;;;;;5067242;28;9718;-85
2023/03/21 09:22:20;;;;;;;;;8.75;8.75;;;;;;;;5065958;28;9801;-81
2023/03/21 09:24:48;;;;;;;;;8.00;8.00;;;;;;;;5078873;28;9966;-84
2023/03/21 09:27:16;;;;;;;;;9.25;9.25;;;;;;;;5065246;28;9619;-79
2023/03/21 09:29:44;;;;;;;;;13.00;13.00;;;;;;;;5068049;28;9531;-84
2023/03/21 09:32:12;;;;;;;;;13.50;11.75;;;;;;;;5068651;28;9493;-84
2023/03/21 09:34:40;;;;;;;;;11.25;11.25;;;;;;;;5065008;28;9391;-84
2023/03/21 09:37:12;;;;;;;;;13.50;12.75;;;;;;;;5065619;28;9478;-72
2023/03/21 09:39:39;;;;;;;;;12.00;12.00;;;;;;;;5064135;28;10666;-75
2023/03/21 09:42:16;;;;;;;;;8.67;8.67;;;;;;;;5069895;28;9680;-85
2023/03/21 09:44:53;;;;;;;;;9.25;9.25;;;;;;;;5067406;28;9501;-79
2023/03/21 09:47:27;;;;;;;;;13.67;9.33;;;;;;;;5063340;28;9935;-85
2023/03/21 09:49:59;;;;;;;;;7.00;7.00;;;;;;;;5066893;28;9382;-78
2023/03/21 09:52:31;;;;;;;;;12.00;9.00;;;;;;;;5076893;28;10008;-77
2023/03/21 09:54:58;;;;;;;;;6.67;6.67;;;;;;;;5068163;28;9239;-83
2023/03/21 09:57:31;;;;;;;;;8.67;8.33;;;;;;;;5067127;28;9297;-78
2023/03/21 10:00:10;;;;;;;;;12.67;8.33;;;;;;;;5066304;28;9321;-78
2023/03/21 10:02:39;;;;;;;;;7.67;7.67;;;;;;;;5060528;28;9364;-82
2023/03/21 10:05:17;;;;;;;;;9.33;9.33;;;;;;;;5064428;28;9225;-82
2023/03/21 10:07:50;;;;;;;;;11.00;11.00;;;;;;;;5066486;28;9268;-77
2023/03/21 10:10:22;;;;;;;;;7.67;7.67;;;;;;;;5067422;28;9327;-83
2023/03/21 10:12:50;;;;;;;;;8.00;8.00;;;;;;;;5067451;28;9250;-80
2023/03/21 10:15:20;;;;;;;;;8.33;7.00;;;;;;;;5067280;28;9069;-81
2023/03/21 10:17:51;;;;;;;;;8.00;8.00;;;;;;;;5070397;28;9182;-80
2023/03/21 10:20:22;;;;;;;;;11.00;7.00;;;;;;;;5064507;28;9194;-81
2023/03/21 10:22:51;;;;;;;;;8.67;7.00;;;;;;;;5060995;28;9082;-79
2023/03/21 10:25:21;;;;;;;;;5.00;5.00;;;;;;;;5069636;28;9019;-78
2023/03/21 10:27:51;;;;;;;;;7.67;4.33;;;;;;;;5065420;28;8844;-81
2023/03/21 10:30:32;;;;;;;;;4.25;4.25;;;;;;;;5070741;28;8930;-80
2023/03/21 10:33:03;;;;;;;;;5.25;5.25;;;;;;;;5075930;28;8854;-86
2023/03/21 10:35:35;;;;;;;;;6.75;5.75;;;;;;;;5072552;28;8820;-79
2023/03/21 10:50:06;;;;;;;;;6.00;4.75;;;;;;;;5123994;27;13488;-78
2023/03/21 10:52:33;;;;;;;;;6.00;4.00;;;;;;;;5105231;28;8859;-82
2023/03/21 10:55:12;;;;;;;;;4.00;4.00;;;;;;;;5106332;28;9769;-72
2023/03/21 10:57:39;;;;;;;;;5.00;3.75;;;;;;;;5092716;28;8844;-72
2023/03/21 11:00:15;;;;;;;;;4.00;4.00;;;;;;;;5099920;27;8929;-77
2023/03/21 11:02:43;;;;;;;;;3.00;3.00;;;;;;;;5088463;28;8955;-75
2023/03/21 11:05:19;;;;;;;;;1.75;1.75;;;;;;;;5085784;28;8843;-72
2023/03/21 11:07:47;;;;;;;;;1.50;1.50;;;;;;;;5085722;28;8949;-76
2023/03/21 11:10:25;;;;;;;;;4.00;2.75;;;;;;;;5084549;28;9673;-73
2023/03/21 11:12:57;;;;;;;;;3.00;3.00;;;;;;;;5085393;28;8846;-76
2023/03/21 11:15:30;;;;;;;;;2.50;2.50;;;;;;;;5084326;28;8846;-73
2023/03/21 11:17:58;;;;;;;;;2.75;2.00;;;;;;;;5083730;28;8854;-77
2023/03/21 11:20:29;;;;;;;;;3.50;3.50;;;;;;;;5084639;28;8851;-76
2023/03/21 11:22:56;;;;;;;;;4.75;3.00;;;;;;;;5084405;28;8962;-77
2023/03/21 11:25:31;;;;;;;;;3.00;3.00;;;;;;;;5083966;28;8878;-78
2023/03/21 11:27:59;;;;;;;;;3.00;3.00;;;;;;;;5084584;28;8870;-76
2023/03/21 11:30:27;;;;;;;;;4.25;2.75;;;;;;;;5083405;28;9497;-78
2023/03/21 11:32:56;;;;;;;;;2.75;2.25;;;;;;;;5084740;28;8851;-79
2023/03/21 11:35:28;;;;;;;;;3.50;2.00;;;;;;;;5084290;28;8854;-77
2023/03/21 11:37:56;;;;;;;;;2.00;2.00;;;;;;;;5084720;28;8865;-78
2023/03/21 11:40:26;;;;;;;;;4.00;2.25;;;;;;;;5083589;28;8881;-77
2023/03/21 11:42:55;;;;;;;;;2.25;2.25;;;;;;;;5077153;28;8866;-77
2023/03/21 11:45:23;;;;;;;;;2.25;1.75;;;;;;;;5085508;28;8819;-78
2023/03/21 11:47:52;;;;;;;;;2.00;2.00;;;;;;;;5088496;28;8857;-78
2023/03/21 11:50:27;;;;;;;;;1.00;1.00;;;;;;;;5097510;28;8844;-78
2023/03/21 11:53:06;;;;;;;;;0.75;0.75;;;;;;;;5106951;28;8870;-77
2023/03/21 11:55:37;;;;;;;;;1.75;1.00;;;;;;;;5104086;28;8971;-78
2023/03/21 11:58:29;;;;;;;;;1.75;1.75;;;;;;;;5104443;28;8838;-76
2023/03/21 12:01:03;;;;;;;;;3.00;3.00;;;;;;;;5081074;28;9474;-78
2023/03/21 12:04:00;;;;;;;;;1.25;1.25;;;;;;;;5089605;28;9697;-74
2023/03/21 12:06:35;;;;;;;;;4.25;2.75;;;;;;;;5084728;28;8826;-77
2023/03/21 12:09:32;;;;;;;;;2.00;2.00;;;;;;;;5091370;28;8842;-75
2023/03/21 12:12:10;;;;;;;;;3.00;3.00;;;;;;;;5089978;28;8869;-73
2023/03/21 12:14:43;;;;;;;;;2.00;2.00;;;;;;;;5089240;28;8869;-77
2023/03/21 12:17:19;;;;;;;;;3.75;3.75;;;;;;;;5079030;28;8882;-73
2023/03/21 12:20:07;;;;;;;;;5.50;4.50;;;;;;;;5089791;28;8830;-73
2023/03/21 12:22:41;;;;;;;;;4.50;4.50;;;;;;;;5089705;28;8935;-76
2023/03/21 12:25:12;;;;;;;;;5.00;5.00;;;;;;;;5090552;28;8868;-74
2023/03/21 12:27:46;;;;;;;;;6.75;6.75;;;;;;;;5089980;28;8834;-76
2023/03/21 12:30:23;;;;;;;;;5.00;4.50;;;;;;;;5089464;28;8861;-77
2023/03/21 12:33:04;;;;;;;;;5.50;4.50;;;;;;;;5089583;28;8846;-77
2023/03/21 12:35:41;;;;;;;;;5.00;5.00;;;;;;;;5089489;28;8862;-75
2023/03/21 12:38:16;;;;;;;;;6.00;6.00;;;;;;;;5078238;28;8858;-75
2023/03/21 12:41:04;;;;;;;;;7.25;5.00;;;;;;;;5089455;28;8915;-77
2023/03/21 12:43:42;;;;;;;;;5.00;5.00;;;;;;;;5089666;28;9612;-78
2023/03/21 12:46:16;;;;;;;;;7.25;6.00;;;;;;;;5089557;28;8842;-78
2023/03/21 12:48:46;;;;;;;;;5.50;5.00;;;;;;;;5089368;28;8856;-77
2023/03/21 12:51:15;;;;;;;;;3.00;3.00;;;;;;;;5089968;28;8908;-77
2023/03/21 12:53:54;;;;;;;;;4.75;4.75;;;;;;;;5089296;28;8868;-77
2023/03/21 12:56:25;;;;;;;;;5.25;5.25;;;;;;;;5090643;28;8858;-78
2023/03/21 12:58:56;;;;;;;;;6.50;6.50;;;;;;;;5090592;28;8872;-77
2023/03/21 13:01:23;;;;;;;;;5.75;4.75;;;;;;;;5089839;28;8771;-77
2023/03/21 13:03:56;;;;;;;;;5.75;5.75;;;;;;;;5088821;28;8885;-78
2023/03/21 13:06:25;;;;;;;;;4.75;4.75;;;;;;;;5089047;28;8869;-76
2023/03/21 13:08:58;;;;;;;;;5.25;5.25;;;;;;;;5089211;28;8906;-86
2023/03/21 13:11:29;;;;;;;;;6.75;5.25;;;;;;;;5087914;28;9687;-76
2023/03/21 13:14:00;;;;;;;;;7.00;7.00;;;;;;;;5089228;28;8847;-82
2023/03/21 13:16:30;;;;;;;;;5.00;5.00;;;;;;;;5088770;28;8826;-80
2023/03/21 13:19:05;;;;;;;;;7.00;5.50;;;;;;;;5089446;28;8892;-77
2023/03/21 13:21:43;;;;;;;;;6.25;6.25;;;;;;;;5089087;28;8936;-82
2023/03/21 13:24:38;;;;;;;;;8.00;6.00;;;;;;;;5090271;28;8854;-86
2023/03/21 13:27:07;;;;;;;;;5.25;4.25;;;;;;;;5081150;28;8883;-79
2023/03/21 13:29:43;;;;;;;;;5.00;5.00;;;;;;;;5088570;28;8878;-75
2023/03/21 13:32:16;;;;;;;;;6.75;5.25;;;;;;;;5090038;28;8826;-75
2023/03/21 13:34:44;;;;;;;;;8.50;6.75;;;;;;;;5089947;28;9675;-76
2023/03/21 13:37:17;;;;;;;;;5.00;5.00;;;;;;;;5086387;28;8918;-79
2023/03/21 13:39:47;;;;;;;;;7.25;5.25;;;;;;;;5091055;28;8827;-79
2023/03/21 13:42:22;;;;;;;;;4.25;4.25;;;;;;;;5093747;28;8880;-81
2023/03/21 13:44:52;;;;;;;;;6.00;6.00;;;;;;;;5092165;28;8871;-75
2023/03/21 13:47:29;;;;;;;;;5.00;5.00;;;;;;;;5087534;28;8850;-74
2023/03/21 13:50:24;;;;;;;;;6.50;6.50;;;;;;;;5087920;28;8854;-72
2023/03/21 13:53:20;;;;;;;;;5.50;5.50;;;;;;;;5082587;28;9679;-74
2023/03/21 13:55:59;;;;;;;;;5.50;5.50;;;;;;;;5080961;28;9652;-75
2023/03/21 13:58:34;;;;;;;;;3.50;3.50;;;;;;;;5084675;28;8862;-75
2023/03/21 14:01:34;;;;;;;;;5.00;4.00;;;;;;;;5088060;28;8905;-75
2023/03/21 14:04:07;;;;;;;;;2.75;2.75;;;;;;;;5088170;28;8839;-77
2023/03/21 14:06:37;;;;;;;;;5.25;4.00;;;;;;;;5087805;28;8856;-78
2023/03/21 14:09:05;;;;;;;;;4.75;4.75;;;;;;;;5084373;28;8852;-75
2023/03/21 14:11:35;;;;;;;;;6.75;6.50;;;;;;;;5085639;28;8854;-75
2023/03/21 14:14:03;;;;;;;;;5.75;5.00;;;;;;;;5088256;28;8850;-76
2023/03/21 14:16:30;;;;;;;;;6.00;4.50;;;;;;;;5087572;28;8844;-77
2023/03/21 14:19:03;;;;;;;;;5.00;5.00;;;;;;;;5071738;28;8982;-73
2023/03/21 14:21:33;;;;;;;;;4.00;4.00;;;;;;;;5085949;28;8827;-78
2023/03/21 14:24:01;;;;;;;;;4.00;4.00;;;;;;;;5087308;28;8870;-72
2023/03/21 14:26:32;;;;;;;;;6.00;4.25;;;;;;;;5087765;28;8858;-78
2023/03/21 14:29:02;;;;;;;;;4.00;4.00;;;;;;;;5087492;28;8846;-74
2023/03/21 14:31:30;;;;;;;;;3.00;3.00;;;;;;;;5086915;28;8829;-79
2023/03/21 14:33:59;;;;;;;;;3.50;3.50;;;;;;;;5086776;28;9014;-74
2023/03/21 14:36:28;;;;;;;;;3.00;3.00;;;;;;;;5080872;28;8864;-76
2023/03/21 14:38:58;;;;;;;;;2.00;2.00;;;;;;;;5083276;28;8968;-73
2023/03/21 14:41:27;;;;;;;;;2.75;2.75;;;;;;;;5087232;28;8850;-77
2023/03/21 14:44:16;;;;;;;;;4.50;3.00;;;;;;;;5087472;28;9467;-78
2023/03/21 14:46:44;;;;;;;;;4.25;4.00;;;;;;;;5087409;28;8866;-75
2023/03/21 14:49:19;;;;;;;;;4.00;2.50;;;;;;;;5083999;28;8953;-82
2023/03/21 14:51:46;;;;;;;;;4.00;4.00;;;;;;;;5080866;28;8846;-80
2023/03/21 14:54:17;;;;;;;;;3.00;3.00;;;;;;;;5088218;28;8850;-73
2023/03/21 14:56:47;;;;;;;;;1.75;1.75;;;;;;;;5088251;28;8857;-80
2023/03/21 14:59:19;;;;;;;;;1.75;1.00;;;;;;;;5088369;28;8847;-79
2023/03/21 15:01:47;;;;;;;;;2.00;2.00;;;;;;;;5087915;28;8778;-76
2023/03/21 15:04:16;;;;;;;;;2.00;2.00;;;;;;;;5088151;28;8888;-74
2023/03/21 15:06:55;;;;;;;;;3.00;3.00;;;;;;;;5087468;28;8895;-73
2023/03/21 15:09:29;;;;;;;;;2.00;2.00;;;;;;;;5087726;28;8846;-74
2023/03/21 15:11:57;;;;;;;;;1.00;1.00;;;;;;;;5081821;28;9079;-80
2023/03/21 15:14:35;;;;;;;;;2.00;2.00;;;;;;;;5087182;28;8856;-80